sensor_id;sensor_type;location;lat;lon;timestamp;P1;durP1;ratioP1;P2;durP2;ratioP2
8466;SDS011;4270;48.148;11.648;2022-10-16T00:00:19;8.00;;;1.87;;
8466;SDS011;4270;48.148;11.648;2022-10-16T00:02:44;4.50;;;2.10;;
8466;SDS011;4270;48.148;11.648;2022-10-16T00:05:09;3.40;;;2.50;;
8466;SDS011;4270;48.148;11.648;2022-10-16T00:07:34;2.30;;;2.03;;
8466;SDS011;4270;48.148;11.648;2022-10-16T00:10:00;2.60;;;1.80;;
8466;SDS011;4270;48.148;11.648;2022-10-16T00:12:25;2.63;;;2.20;;
8466;SDS011;4270;48.148;11.648;2022-10-16T00:17:25;4.00;;;2.13;;
8466;SDS011;4270;48.148;11.648;2022-10-16T00:19:50;3.37;;;2.00;;
8466;SDS011;4270;48.148;11.648;2022-10-16T00:22:16;3.10;;;2.00;;
8466;SDS011;4270;48.148;11.648;2022-10-16T00:24:41;5.63;;;2.00;;
8466;SDS011;4270;48.148;11.648;2022-10-16T00:27:06;2.43;;;2.00;;
8466;SDS011;4270;48.148;11.648;2022-10-16T00:29:31;1.83;;;1.70;;
8466;SDS011;4270;48.148;11.648;2022-10-16T00:31:57;1.87;;;1.60;;
8466;SDS011;4270;48.148;11.648;2022-10-16T00:34:22;4.57;;;2.53;;
8466;SDS011;4270;48.148;11.648;2022-10-16T00:36:47;2.23;;;1.87;;
8466;SDS011;4270;48.148;11.648;2022-10-16T00:39:12;2.07;;;1.87;;
8466;SDS011;4270;48.148;11.648;2022-10-16T00:41:38;5.80;;;2.40;;
8466;SDS011;4270;48.148;11.648;2022-10-16T00:44:04;2.03;;;1.70;;
8466;SDS011;4270;48.148;11.648;2022-10-16T00:46:48;7.90;;;4.10;;
8466;SDS011;4270;48.148;11.648;2022-10-16T00:49:14;5.43;;;2.10;;
8466;SDS011;4270;48.148;11.648;2022-10-16T00:51:41;2.17;;;1.83;;
8466;SDS011;4270;48.148;11.648;2022-10-16T00:54:12;2.13;;;1.70;;
8466;SDS011;4270;48.148;11.648;2022-10-16T00:56:38;2.37;;;1.70;;
8466;SDS011;4270;48.148;11.648;2022-10-16T00:59:04;3.33;;;1.97;;
8466;SDS011;4270;48.148;11.648;2022-10-16T01:01:31;2.90;;;1.53;;
8466;SDS011;4270;48.148;11.648;2022-10-16T01:03:56;2.50;;;2.20;;
8466;SDS011;4270;48.148;11.648;2022-10-16T01:06:23;2.00;;;1.73;;
8466;SDS011;4270;48.148;11.648;2022-10-16T01:08:53;2.47;;;2.07;;
8466;SDS011;4270;48.148;11.648;2022-10-16T01:11:33;2.50;;;1.83;;
8466;SDS011;4270;48.148;11.648;2022-10-16T01:14:03;1.97;;;1.77;;
8466;SDS011;4270;48.148;11.648;2022-10-16T01:21:41;3.20;;;1.83;;
8466;SDS011;4270;48.148;11.648;2022-10-16T01:24:22;4.30;;;1.40;;
8466;SDS011;4270;48.148;11.648;2022-10-16T01:29:16;3.60;;;1.63;;
8466;SDS011;4270;48.148;11.648;2022-10-16T01:31:45;1.83;;;1.70;;
8466;SDS011;4270;48.148;11.648;2022-10-16T01:34:16;4.13;;;1.70;;
8466;SDS011;4270;48.148;11.648;2022-10-16T01:37:18;1.40;;;1.27;;
8466;SDS011;4270;48.148;11.648;2022-10-16T01:39:35;3.00;;;1.67;;
8466;SDS011;4270;48.148;11.648;2022-10-16T01:42:03;10.63;;;2.00;;
8466;SDS011;4270;48.148;11.648;2022-10-16T01:44:31;1.73;;;1.60;;
8466;SDS011;4270;48.148;11.648;2022-10-16T01:46:57;3.43;;;1.70;;
8466;SDS011;4270;48.148;11.648;2022-10-16T01:49:23;4.37;;;1.60;;
8466;SDS011;4270;48.148;11.648;2022-10-16T01:51:51;1.40;;;1.30;;
8466;SDS011;4270;48.148;11.648;2022-10-16T01:54:18;2.13;;;1.50;;
8466;SDS011;4270;48.148;11.648;2022-10-16T01:56:45;2.60;;;1.47;;
8466;SDS011;4270;48.148;11.648;2022-10-16T01:59:11;3.00;;;1.40;;
8466;SDS011;4270;48.148;11.648;2022-10-16T02:01:38;3.67;;;1.50;;
8466;SDS011;4270;48.148;11.648;2022-10-16T02:04:22;3.10;;;1.60;;
8466;SDS011;4270;48.148;11.648;2022-10-16T02:06:49;1.50;;;1.37;;
8466;SDS011;4270;48.148;11.648;2022-10-16T02:09:14;1.40;;;1.30;;
8466;SDS011;4270;48.148;11.648;2022-10-16T02:11:41;5.10;;;1.47;;
8466;SDS011;4270;48.148;11.648;2022-10-16T02:14:07;2.17;;;1.53;;
8466;SDS011;4270;48.148;11.648;2022-10-16T02:16:42;2.70;;;1.53;;
8466;SDS011;4270;48.148;11.648;2022-10-16T02:19:08;3.53;;;1.60;;
8466;SDS011;4270;48.148;11.648;2022-10-16T02:21:42;2.20;;;1.40;;
8466;SDS011;4270;48.148;11.648;2022-10-16T02:26:41;1.50;;;1.10;;
8466;SDS011;4270;48.148;11.648;2022-10-16T02:29:10;1.60;;;1.30;;
8466;SDS011;4270;48.148;11.648;2022-10-16T02:31:38;3.30;;;1.80;;
8466;SDS011;4270;48.148;11.648;2022-10-16T02:34:06;2.90;;;1.40;;
8466;SDS011;4270;48.148;11.648;2022-10-16T02:36:32;1.43;;;1.33;;
8466;SDS011;4270;48.148;11.648;2022-10-16T02:38:58;2.87;;;1.43;;
8466;SDS011;4270;48.148;11.648;2022-10-16T02:41:26;1.90;;;1.60;;
8466;SDS011;4270;48.148;11.648;2022-10-16T02:43:51;2.23;;;1.90;;
8466;SDS011;4270;48.148;11.648;2022-10-16T02:46:16;1.43;;;1.33;;
8466;SDS011;4270;48.148;11.648;2022-10-16T02:48:42;2.87;;;1.37;;
8466;SDS011;4270;48.148;11.648;2022-10-16T02:51:07;5.53;;;1.27;;
8466;SDS011;4270;48.148;11.648;2022-10-16T02:53:33;2.73;;;1.63;;
8466;SDS011;4270;48.148;11.648;2022-10-16T02:55:58;3.30;;;1.97;;
8466;SDS011;4270;48.148;11.648;2022-10-16T02:58:23;3.67;;;1.60;;
8466;SDS011;4270;48.148;11.648;2022-10-16T03:00:48;4.30;;;1.37;;
8466;SDS011;4270;48.148;11.648;2022-10-16T03:03:14;6.90;;;1.77;;
8466;SDS011;4270;48.148;11.648;2022-10-16T03:05:39;1.67;;;1.40;;
8466;SDS011;4270;48.148;11.648;2022-10-16T03:08:04;4.17;;;1.73;;
8466;SDS011;4270;48.148;11.648;2022-10-16T03:10:29;1.30;;;1.20;;
8466;SDS011;4270;48.148;11.648;2022-10-16T03:12:55;2.33;;;1.60;;
8466;SDS011;4270;48.148;11.648;2022-10-16T03:15:20;2.27;;;1.60;;
8466;SDS011;4270;48.148;11.648;2022-10-16T03:17:45;3.30;;;1.70;;
8466;SDS011;4270;48.148;11.648;2022-10-16T03:20:10;1.40;;;1.30;;
8466;SDS011;4270;48.148;11.648;2022-10-16T03:22:36;1.50;;;1.30;;
8466;SDS011;4270;48.148;11.648;2022-10-16T03:25:01;2.70;;;1.50;;
8466;SDS011;4270;48.148;11.648;2022-10-16T03:27:27;2.07;;;1.90;;
8466;SDS011;4270;48.148;11.648;2022-10-16T03:29:52;4.70;;;1.60;;
8466;SDS011;4270;48.148;11.648;2022-10-16T03:32:17;1.60;;;1.40;;
8466;SDS011;4270;48.148;11.648;2022-10-16T03:34:43;2.03;;;1.50;;
8466;SDS011;4270;48.148;11.648;2022-10-16T03:37:08;2.30;;;1.63;;
8466;SDS011;4270;48.148;11.648;2022-10-16T03:39:34;2.67;;;1.63;;
8466;SDS011;4270;48.148;11.648;2022-10-16T03:41:59;2.27;;;1.83;;
8466;SDS011;4270;48.148;11.648;2022-10-16T03:44:24;4.00;;;1.87;;
8466;SDS011;4270;48.148;11.648;2022-10-16T03:46:49;5.40;;;2.20;;
8466;SDS011;4270;48.148;11.648;2022-10-16T03:49:14;1.70;;;1.50;;
8466;SDS011;4270;48.148;11.648;2022-10-16T03:51:40;2.57;;;1.50;;
8466;SDS011;4270;48.148;11.648;2022-10-16T03:54:05;2.80;;;1.93;;
8466;SDS011;4270;48.148;11.648;2022-10-16T03:56:30;4.47;;;1.27;;
8466;SDS011;4270;48.148;11.648;2022-10-16T03:58:56;2.93;;;1.47;;
8466;SDS011;4270;48.148;11.648;2022-10-16T04:01:21;4.93;;;1.67;;
8466;SDS011;4270;48.148;11.648;2022-10-16T04:03:46;2.57;;;1.60;;
8466;SDS011;4270;48.148;11.648;2022-10-16T04:06:11;4.03;;;1.93;;
8466;SDS011;4270;48.148;11.648;2022-10-16T04:08:36;3.40;;;1.90;;
8466;SDS011;4270;48.148;11.648;2022-10-16T04:11:04;2.27;;;1.87;;
8466;SDS011;4270;48.148;11.648;2022-10-16T04:13:29;3.30;;;1.50;;
8466;SDS011;4270;48.148;11.648;2022-10-16T04:15:54;4.63;;;1.83;;
8466;SDS011;4270;48.148;11.648;2022-10-16T04:18:19;2.67;;;1.70;;
8466;SDS011;4270;48.148;11.648;2022-10-16T04:20:45;4.80;;;1.97;;
8466;SDS011;4270;48.148;11.648;2022-10-16T04:23:10;1.80;;;1.53;;
8466;SDS011;4270;48.148;11.648;2022-10-16T04:25:35;6.17;;;2.63;;
8466;SDS011;4270;48.148;11.648;2022-10-16T04:28:00;1.80;;;1.47;;
8466;SDS011;4270;48.148;11.648;2022-10-16T04:30:26;2.50;;;1.77;;
8466;SDS011;4270;48.148;11.648;2022-10-16T04:32:51;3.07;;;2.00;;
8466;SDS011;4270;48.148;11.648;2022-10-16T04:35:17;4.87;;;2.33;;
8466;SDS011;4270;48.148;11.648;2022-10-16T04:37:43;2.60;;;1.80;;
8466;SDS011;4270;48.148;11.648;2022-10-16T04:40:08;5.03;;;1.47;;
8466;SDS011;4270;48.148;11.648;2022-10-16T04:42:33;1.70;;;1.60;;
8466;SDS011;4270;48.148;11.648;2022-10-16T04:44:58;7.53;;;1.80;;
8466;SDS011;4270;48.148;11.648;2022-10-16T04:47:24;2.00;;;1.53;;
8466;SDS011;4270;48.148;11.648;2022-10-16T04:49:49;1.53;;;1.37;;
8466;SDS011;4270;48.148;11.648;2022-10-16T04:52:14;2.00;;;1.60;;
8466;SDS011;4270;48.148;11.648;2022-10-16T04:54:40;4.33;;;1.83;;
8466;SDS011;4270;48.148;11.648;2022-10-16T04:57:05;3.20;;;1.60;;
8466;SDS011;4270;48.148;11.648;2022-10-16T04:59:30;1.33;;;1.23;;
8466;SDS011;4270;48.148;11.648;2022-10-16T05:01:55;4.40;;;1.70;;
8466;SDS011;4270;48.148;11.648;2022-10-16T05:04:21;2.33;;;1.60;;
8466;SDS011;4270;48.148;11.648;2022-10-16T05:06:47;3.50;;;1.83;;
8466;SDS011;4270;48.148;11.648;2022-10-16T05:09:12;1.70;;;1.60;;
8466;SDS011;4270;48.148;11.648;2022-10-16T05:11:37;1.50;;;1.20;;
8466;SDS011;4270;48.148;11.648;2022-10-16T05:14:03;2.70;;;1.40;;
8466;SDS011;4270;48.148;11.648;2022-10-16T05:16:28;3.60;;;1.43;;
8466;SDS011;4270;48.148;11.648;2022-10-16T05:18:55;1.50;;;1.40;;
8466;SDS011;4270;48.148;11.648;2022-10-16T05:21:20;2.80;;;1.40;;
8466;SDS011;4270;48.148;11.648;2022-10-16T05:23:45;1.67;;;1.50;;
8466;SDS011;4270;48.148;11.648;2022-10-16T05:26:10;3.03;;;1.63;;
8466;SDS011;4270;48.148;11.648;2022-10-16T05:28:36;1.50;;;1.30;;
8466;SDS011;4270;48.148;11.648;2022-10-16T05:31:08;4.40;;;1.40;;
8466;SDS011;4270;48.148;11.648;2022-10-16T05:33:33;1.90;;;1.47;;
8466;SDS011;4270;48.148;11.648;2022-10-16T05:36:02;2.23;;;1.30;;
8466;SDS011;4270;48.148;11.648;2022-10-16T05:38:28;1.50;;;1.30;;
8466;SDS011;4270;48.148;11.648;2022-10-16T05:40:53;1.60;;;1.20;;
8466;SDS011;4270;48.148;11.648;2022-10-16T05:43:18;1.63;;;1.30;;
8466;SDS011;4270;48.148;11.648;2022-10-16T05:45:44;2.07;;;1.70;;
8466;SDS011;4270;48.148;11.648;2022-10-16T05:48:09;2.30;;;2.00;;
8466;SDS011;4270;48.148;11.648;2022-10-16T05:50:34;2.40;;;1.90;;
8466;SDS011;4270;48.148;11.648;2022-10-16T05:52:59;2.83;;;1.40;;
8466;SDS011;4270;48.148;11.648;2022-10-16T05:55:25;2.47;;;2.03;;
8466;SDS011;4270;48.148;11.648;2022-10-16T05:57:50;5.13;;;1.90;;
8466;SDS011;4270;48.148;11.648;2022-10-16T06:00:15;1.80;;;1.60;;
8466;SDS011;4270;48.148;11.648;2022-10-16T06:02:40;1.40;;;1.30;;
8466;SDS011;4270;48.148;11.648;2022-10-16T06:05:06;2.70;;;1.50;;
8466;SDS011;4270;48.148;11.648;2022-10-16T06:07:34;1.50;;;1.40;;
8466;SDS011;4270;48.148;11.648;2022-10-16T06:09:59;1.77;;;1.50;;
8466;SDS011;4270;48.148;11.648;2022-10-16T06:12:24;2.77;;;1.50;;
8466;SDS011;4270;48.148;11.648;2022-10-16T06:17:30;1.97;;;1.53;;
8466;SDS011;4270;48.148;11.648;2022-10-16T06:19:55;2.90;;;1.53;;
8466;SDS011;4270;48.148;11.648;2022-10-16T06:22:20;1.77;;;1.50;;
8466;SDS011;4270;48.148;11.648;2022-10-16T06:24:46;2.30;;;1.33;;
8466;SDS011;4270;48.148;11.648;2022-10-16T06:27:12;1.93;;;1.63;;
8466;SDS011;4270;48.148;11.648;2022-10-16T06:29:37;2.43;;;1.50;;
8466;SDS011;4270;48.148;11.648;2022-10-16T06:32:03;2.30;;;1.43;;
8466;SDS011;4270;48.148;11.648;2022-10-16T06:34:28;1.97;;;1.43;;
8466;SDS011;4270;48.148;11.648;2022-10-16T06:36:53;3.10;;;1.50;;
8466;SDS011;4270;48.148;11.648;2022-10-16T06:39:18;1.70;;;1.60;;
8466;SDS011;4270;48.148;11.648;2022-10-16T06:41:43;1.50;;;1.40;;
8466;SDS011;4270;48.148;11.648;2022-10-16T06:44:09;4.07;;;1.70;;
8466;SDS011;4270;48.148;11.648;2022-10-16T06:46:34;2.70;;;1.40;;
8466;SDS011;4270;48.148;11.648;2022-10-16T06:48:59;4.30;;;1.20;;
8466;SDS011;4270;48.148;11.648;2022-10-16T06:51:25;1.63;;;1.50;;
8466;SDS011;4270;48.148;11.648;2022-10-16T06:53:51;1.80;;;1.70;;
8466;SDS011;4270;48.148;11.648;2022-10-16T06:56:21;2.80;;;1.80;;
8466;SDS011;4270;48.148;11.648;2022-10-16T06:58:47;2.67;;;1.93;;
8466;SDS011;4270;48.148;11.648;2022-10-16T07:01:13;2.17;;;1.43;;
8466;SDS011;4270;48.148;11.648;2022-10-16T07:03:42;1.50;;;1.40;;
8466;SDS011;4270;48.148;11.648;2022-10-16T07:06:08;3.00;;;1.40;;
8466;SDS011;4270;48.148;11.648;2022-10-16T07:08:34;3.80;;;1.70;;
8466;SDS011;4270;48.148;11.648;2022-10-16T07:11:03;2.20;;;1.63;;
8466;SDS011;4270;48.148;11.648;2022-10-16T07:13:29;3.23;;;1.80;;
8466;SDS011;4270;48.148;11.648;2022-10-16T07:15:54;2.10;;;1.90;;
8466;SDS011;4270;48.148;11.648;2022-10-16T07:18:20;2.10;;;1.57;;
8466;SDS011;4270;48.148;11.648;2022-10-16T07:20:45;4.20;;;1.77;;
8466;SDS011;4270;48.148;11.648;2022-10-16T07:23:10;1.60;;;1.50;;
8466;SDS011;4270;48.148;11.648;2022-10-16T07:25:35;2.60;;;1.87;;
8466;SDS011;4270;48.148;11.648;2022-10-16T07:28:01;7.50;;;1.67;;
8466;SDS011;4270;48.148;11.648;2022-10-16T07:30:26;6.53;;;1.70;;
8466;SDS011;4270;48.148;11.648;2022-10-16T07:32:51;4.13;;;1.50;;
8466;SDS011;4270;48.148;11.648;2022-10-16T07:35:16;2.37;;;1.57;;
8466;SDS011;4270;48.148;11.648;2022-10-16T07:37:45;4.23;;;1.50;;
8466;SDS011;4270;48.148;11.648;2022-10-16T07:40:10;2.93;;;1.77;;
8466;SDS011;4270;48.148;11.648;2022-10-16T07:42:36;2.17;;;1.40;;
8466;SDS011;4270;48.148;11.648;2022-10-16T07:45:01;2.60;;;1.50;;
8466;SDS011;4270;48.148;11.648;2022-10-16T07:47:26;2.57;;;2.03;;
8466;SDS011;4270;48.148;11.648;2022-10-16T07:49:51;2.30;;;1.63;;
8466;SDS011;4270;48.148;11.648;2022-10-16T07:52:17;1.63;;;1.40;;
8466;SDS011;4270;48.148;11.648;2022-10-16T07:54:42;2.00;;;1.80;;
8466;SDS011;4270;48.148;11.648;2022-10-16T07:57:07;3.80;;;2.33;;
8466;SDS011;4270;48.148;11.648;2022-10-16T07:59:32;2.30;;;1.97;;
8466;SDS011;4270;48.148;11.648;2022-10-16T08:01:58;1.90;;;1.70;;
8466;SDS011;4270;48.148;11.648;2022-10-16T08:04:23;2.00;;;1.80;;
8466;SDS011;4270;48.148;11.648;2022-10-16T08:06:48;3.10;;;2.00;;
8466;SDS011;4270;48.148;11.648;2022-10-16T08:09:14;2.63;;;2.17;;
8466;SDS011;4270;48.148;11.648;2022-10-16T08:11:40;1.97;;;1.63;;
8466;SDS011;4270;48.148;11.648;2022-10-16T08:14:05;2.83;;;1.97;;
8466;SDS011;4270;48.148;11.648;2022-10-16T08:16:30;2.90;;;2.67;;
8466;SDS011;4270;48.148;11.648;2022-10-16T08:18:56;1.93;;;1.80;;
8466;SDS011;4270;48.148;11.648;2022-10-16T08:21:21;2.10;;;1.90;;
8466;SDS011;4270;48.148;11.648;2022-10-16T08:23:48;3.03;;;2.17;;
8466;SDS011;4270;48.148;11.648;2022-10-16T08:26:14;1.70;;;1.60;;
8466;SDS011;4270;48.148;11.648;2022-10-16T08:28:39;2.20;;;2.00;;
8466;SDS011;4270;48.148;11.648;2022-10-16T08:31:08;2.00;;;1.80;;
8466;SDS011;4270;48.148;11.648;2022-10-16T08:33:34;2.13;;;1.73;;
8466;SDS011;4270;48.148;11.648;2022-10-16T08:36:00;2.07;;;1.83;;
8466;SDS011;4270;48.148;11.648;2022-10-16T08:38:25;2.00;;;1.87;;
8466;SDS011;4270;48.148;11.648;2022-10-16T08:40:50;2.93;;;1.70;;
8466;SDS011;4270;48.148;11.648;2022-10-16T08:50:36;2.10;;;1.90;;
8466;SDS011;4270;48.148;11.648;2022-10-16T08:53:03;1.95;;;1.80;;
8466;SDS011;4270;48.148;11.648;2022-10-16T08:55:34;2.10;;;1.90;;
8466;SDS011;4270;48.148;11.648;2022-10-16T08:58:02;1.75;;;1.65;;
8466;SDS011;4270;48.148;11.648;2022-10-16T09:00:27;2.00;;;1.90;;
8466;SDS011;4270;48.148;11.648;2022-10-16T09:02:56;2.25;;;2.05;;
8466;SDS011;4270;48.148;11.648;2022-10-16T09:05:29;2.20;;;1.80;;
8466;SDS011;4270;48.148;11.648;2022-10-16T09:08:06;4.55;;;1.92;;
8466;SDS011;4270;48.148;11.648;2022-10-16T09:20:32;1.83;;;1.70;;
8466;SDS011;4270;48.148;11.648;2022-10-16T09:23:19;1.90;;;1.80;;
8466;SDS011;4270;48.148;11.648;2022-10-16T09:25:46;1.70;;;1.60;;
8466;SDS011;4270;48.148;11.648;2022-10-16T09:28:12;1.83;;;1.70;;
8466;SDS011;4270;48.148;11.648;2022-10-16T09:30:38;2.40;;;1.80;;
8466;SDS011;4270;48.148;11.648;2022-10-16T09:33:04;1.83;;;1.67;;
8466;SDS011;4270;48.148;11.648;2022-10-16T09:35:37;1.67;;;1.58;;
8466;SDS011;4270;48.148;11.648;2022-10-16T09:38:04;4.95;;;2.00;;
8466;SDS011;4270;48.148;11.648;2022-10-16T09:40:30;2.10;;;1.65;;
8466;SDS011;4270;48.148;11.648;2022-10-16T09:42:57;1.80;;;1.70;;
8466;SDS011;4270;48.148;11.648;2022-10-16T09:45:25;2.05;;;1.88;;
8466;SDS011;4270;48.148;11.648;2022-10-16T09:47:51;1.63;;;1.52;;
8466;SDS011;4270;48.148;11.648;2022-10-16T09:50:21;1.67;;;1.58;;
8466;SDS011;4270;48.148;11.648;2022-10-16T09:52:47;1.70;;;1.60;;
8466;SDS011;4270;48.148;11.648;2022-10-16T09:55:14;1.40;;;1.30;;
8466;SDS011;4270;48.148;11.648;2022-10-16T09:57:54;2.35;;;1.70;;
8466;SDS011;4270;48.148;11.648;2022-10-16T10:00:20;1.50;;;1.40;;
8466;SDS011;4270;48.148;11.648;2022-10-16T10:02:46;1.50;;;1.40;;
8466;SDS011;4270;48.148;11.648;2022-10-16T10:05:21;1.40;;;1.30;;
8466;SDS011;4270;48.148;11.648;2022-10-16T10:07:52;1.33;;;1.23;;
8466;SDS011;4270;48.148;11.648;2022-10-16T10:10:28;1.70;;;1.60;;
8466;SDS011;4270;48.148;11.648;2022-10-16T10:12:55;2.05;;;1.60;;
8466;SDS011;4270;48.148;11.648;2022-10-16T10:15:20;3.53;;;1.52;;
8466;SDS011;4270;48.148;11.648;2022-10-16T10:17:49;1.50;;;1.40;;
8466;SDS011;4270;48.148;11.648;2022-10-16T10:20:21;1.48;;;1.38;;
8466;SDS011;4270;48.148;11.648;2022-10-16T10:22:46;2.38;;;1.60;;
8466;SDS011;4270;48.148;11.648;2022-10-16T10:27:53;1.63;;;1.53;;
8466;SDS011;4270;48.148;11.648;2022-10-16T10:40:50;1.20;;;1.10;;
8466;SDS011;4270;48.148;11.648;2022-10-16T10:45:43;1.87;;;1.33;;
8466;SDS011;4270;48.148;11.648;2022-10-16T10:48:25;2.17;;;1.43;;
8466;SDS011;4270;48.148;11.648;2022-10-16T10:50:58;1.30;;;1.20;;
8466;SDS011;4270;48.148;11.648;2022-10-16T11:01:30;1.40;;;1.30;;
8466;SDS011;4270;48.148;11.648;2022-10-16T11:04:05;1.43;;;1.33;;
8466;SDS011;4270;48.148;11.648;2022-10-16T11:06:45;1.57;;;1.47;;
8466;SDS011;4270;48.148;11.648;2022-10-16T11:14:17;1.40;;;1.30;;
8466;SDS011;4270;48.148;11.648;2022-10-16T11:19:14;1.10;;;1.00;;
8466;SDS011;4270;48.148;11.648;2022-10-16T11:21:46;1.60;;;1.50;;
8466;SDS011;4270;48.148;11.648;2022-10-16T11:26:59;1.53;;;1.20;;
8466;SDS011;4270;48.148;11.648;2022-10-16T11:29:29;1.20;;;1.03;;
8466;SDS011;4270;48.148;11.648;2022-10-16T11:32:05;2.40;;;1.20;;
8466;SDS011;4270;48.148;11.648;2022-10-16T11:34:36;1.10;;;0.80;;
8466;SDS011;4270;48.148;11.648;2022-10-16T11:42:44;1.20;;;1.10;;
8466;SDS011;4270;48.148;11.648;2022-10-16T11:50:20;1.47;;;1.30;;
8466;SDS011;4270;48.148;11.648;2022-10-16T11:55:16;1.63;;;1.23;;
8466;SDS011;4270;48.148;11.648;2022-10-16T11:57:53;1.37;;;1.10;;
8466;SDS011;4270;48.148;11.648;2022-10-16T12:03:08;2.17;;;1.57;;
8466;SDS011;4270;48.148;11.648;2022-10-16T12:08:04;1.20;;;1.10;;
8466;SDS011;4270;48.148;11.648;2022-10-16T12:10:31;1.23;;;0.80;;
8466;SDS011;4270;48.148;11.648;2022-10-16T12:12:59;1.00;;;0.90;;
8466;SDS011;4270;48.148;11.648;2022-10-16T12:18:07;1.63;;;0.80;;
8466;SDS011;4270;48.148;11.648;2022-10-16T12:20:53;1.20;;;1.10;;
8466;SDS011;4270;48.148;11.648;2022-10-16T12:23:19;1.07;;;0.80;;
8466;SDS011;4270;48.148;11.648;2022-10-16T12:25:53;1.47;;;1.03;;
8466;SDS011;4270;48.148;11.648;2022-10-16T12:28:19;1.40;;;0.90;;
8466;SDS011;4270;48.148;11.648;2022-10-16T12:30:55;1.00;;;0.90;;
8466;SDS011;4270;48.148;11.648;2022-10-16T12:35:51;0.97;;;0.80;;
8466;SDS011;4270;48.148;11.648;2022-10-16T12:38:37;0.80;;;0.80;;
8466;SDS011;4270;48.148;11.648;2022-10-16T12:41:07;1.00;;;0.90;;
8466;SDS011;4270;48.148;11.648;2022-10-16T12:48:31;1.43;;;0.97;;
8466;SDS011;4270;48.148;11.648;2022-10-16T12:50:56;2.77;;;0.97;;
8466;SDS011;4270;48.148;11.648;2022-10-16T12:53:23;1.33;;;1.13;;
8466;SDS011;4270;48.148;11.648;2022-10-16T12:58:24;2.00;;;1.77;;
8466;SDS011;4270;48.148;11.648;2022-10-16T13:00:57;3.90;;;1.83;;
8466;SDS011;4270;48.148;11.648;2022-10-16T13:11:05;1.83;;;1.10;;
8466;SDS011;4270;48.148;11.648;2022-10-16T13:18:40;1.73;;;1.33;;
8466;SDS011;4270;48.148;11.648;2022-10-16T13:29:04;0.90;;;0.90;;
8466;SDS011;4270;48.148;11.648;2022-10-16T13:31:29;1.00;;;0.87;;
8466;SDS011;4270;48.148;11.648;2022-10-16T13:33:56;1.17;;;1.07;;
8466;SDS011;4270;48.148;11.648;2022-10-16T13:36:27;1.43;;;1.10;;
8466;SDS011;4270;48.148;11.648;2022-10-16T13:39:27;1.00;;;0.90;;
8466;SDS011;4270;48.148;11.648;2022-10-16T13:41:45;1.37;;;1.10;;
8466;SDS011;4270;48.148;11.648;2022-10-16T13:44:19;1.17;;;0.93;;
8466;SDS011;4270;48.148;11.648;2022-10-16T13:46:45;1.10;;;0.90;;
8466;SDS011;4270;48.148;11.648;2022-10-16T13:49:16;2.10;;;1.00;;
8466;SDS011;4270;48.148;11.648;2022-10-16T13:51:53;1.30;;;0.90;;
8466;SDS011;4270;48.148;11.648;2022-10-16T13:54:18;1.30;;;0.90;;
8466;SDS011;4270;48.148;11.648;2022-10-16T13:56:44;1.20;;;1.10;;
8466;SDS011;4270;48.148;11.648;2022-10-16T13:59:25;1.40;;;1.03;;
8466;SDS011;4270;48.148;11.648;2022-10-16T14:01:52;1.67;;;1.00;;
8466;SDS011;4270;48.148;11.648;2022-10-16T14:04:19;1.30;;;1.20;;
8466;SDS011;4270;48.148;11.648;2022-10-16T14:06:45;1.10;;;1.00;;
8466;SDS011;4270;48.148;11.648;2022-10-16T14:09:17;0.97;;;0.80;;
8466;SDS011;4270;48.148;11.648;2022-10-16T14:11:46;10.97;;;4.27;;
8466;SDS011;4270;48.148;11.648;2022-10-16T14:14:12;10.93;;;2.50;;
8466;SDS011;4270;48.148;11.648;2022-10-16T14:16:40;6.20;;;2.93;;
8466;SDS011;4270;48.148;11.648;2022-10-16T14:19:05;7.10;;;2.73;;
8466;SDS011;4270;48.148;11.648;2022-10-16T14:21:32;2.30;;;1.63;;
8466;SDS011;4270;48.148;11.648;2022-10-16T14:23:57;1.43;;;1.17;;
8466;SDS011;4270;48.148;11.648;2022-10-16T14:26:23;3.50;;;1.40;;
8466;SDS011;4270;48.148;11.648;2022-10-16T14:29:00;2.50;;;1.10;;
8466;SDS011;4270;48.148;11.648;2022-10-16T14:31:32;2.57;;;1.20;;
8466;SDS011;4270;48.148;11.648;2022-10-16T14:33:58;1.20;;;1.10;;
8466;SDS011;4270;48.148;11.648;2022-10-16T14:36:24;1.20;;;1.07;;
8466;SDS011;4270;48.148;11.648;2022-10-16T14:39:01;0.90;;;0.90;;
8466;SDS011;4270;48.148;11.648;2022-10-16T14:41:27;0.93;;;0.90;;
8466;SDS011;4270;48.148;11.648;2022-10-16T14:43:54;3.00;;;1.37;;
8466;SDS011;4270;48.148;11.648;2022-10-16T14:49:18;4.50;;;1.73;;
8466;SDS011;4270;48.148;11.648;2022-10-16T14:51:45;1.37;;;0.90;;
8466;SDS011;4270;48.148;11.648;2022-10-16T14:54:15;2.07;;;1.00;;
8466;SDS011;4270;48.148;11.648;2022-10-16T14:59:10;4.73;;;1.30;;
8466;SDS011;4270;48.148;11.648;2022-10-16T15:01:38;1.10;;;0.93;;
8466;SDS011;4270;48.148;11.648;2022-10-16T15:04:03;4.73;;;1.40;;
8466;SDS011;4270;48.148;11.648;2022-10-16T15:06:28;1.50;;;1.30;;
8466;SDS011;4270;48.148;11.648;2022-10-16T15:08:53;1.17;;;1.07;;
8466;SDS011;4270;48.148;11.648;2022-10-16T15:11:19;1.30;;;1.20;;
8466;SDS011;4270;48.148;11.648;2022-10-16T15:13:44;1.50;;;1.40;;
8466;SDS011;4270;48.148;11.648;2022-10-16T15:16:16;2.73;;;1.50;;
8466;SDS011;4270;48.148;11.648;2022-10-16T15:18:41;1.20;;;1.10;;
8466;SDS011;4270;48.148;11.648;2022-10-16T15:21:07;1.17;;;1.07;;
8466;SDS011;4270;48.148;11.648;2022-10-16T15:23:32;1.50;;;1.23;;
8466;SDS011;4270;48.148;11.648;2022-10-16T15:25:58;1.53;;;1.23;;
8466;SDS011;4270;48.148;11.648;2022-10-16T15:28:24;2.67;;;1.10;;
8466;SDS011;4270;48.148;11.648;2022-10-16T15:30:50;3.10;;;1.40;;
8466;SDS011;4270;48.148;11.648;2022-10-16T15:33:16;1.53;;;1.37;;
8466;SDS011;4270;48.148;11.648;2022-10-16T15:35:42;1.37;;;0.80;;
8466;SDS011;4270;48.148;11.648;2022-10-16T15:38:14;1.20;;;1.10;;
8466;SDS011;4270;48.148;11.648;2022-10-16T15:40:40;1.67;;;1.00;;
8466;SDS011;4270;48.148;11.648;2022-10-16T15:43:05;3.40;;;1.20;;
8466;SDS011;4270;48.148;11.648;2022-10-16T15:45:31;2.47;;;1.20;;
8466;SDS011;4270;48.148;11.648;2022-10-16T15:47:56;2.50;;;1.40;;
8466;SDS011;4270;48.148;11.648;2022-10-16T15:50:21;11.27;;;1.40;;
8466;SDS011;4270;48.148;11.648;2022-10-16T15:52:46;2.73;;;1.40;;
8466;SDS011;4270;48.148;11.648;2022-10-16T15:55:12;6.93;;;1.20;;
8466;SDS011;4270;48.148;11.648;2022-10-16T15:57:38;1.73;;;1.30;;
8466;SDS011;4270;48.148;11.648;2022-10-16T16:00:09;1.90;;;1.23;;
8466;SDS011;4270;48.148;11.648;2022-10-16T16:02:35;1.70;;;1.50;;
8466;SDS011;4270;48.148;11.648;2022-10-16T16:05:00;3.93;;;1.37;;
8466;SDS011;4270;48.148;11.648;2022-10-16T16:07:26;3.00;;;1.60;;
8466;SDS011;4270;48.148;11.648;2022-10-16T16:09:52;3.10;;;1.40;;
8466;SDS011;4270;48.148;11.648;2022-10-16T16:12:17;5.90;;;1.40;;
8466;SDS011;4270;48.148;11.648;2022-10-16T16:14:42;2.83;;;1.30;;
8466;SDS011;4270;48.148;11.648;2022-10-16T16:17:10;3.60;;;1.43;;
8466;SDS011;4270;48.148;11.648;2022-10-16T16:19:36;1.83;;;1.27;;
8466;SDS011;4270;48.148;11.648;2022-10-16T16:22:01;4.40;;;1.40;;
8466;SDS011;4270;48.148;11.648;2022-10-16T16:24:26;1.90;;;1.30;;
8466;SDS011;4270;48.148;11.648;2022-10-16T16:26:52;7.93;;;1.67;;
8466;SDS011;4270;48.148;11.648;2022-10-16T16:29:17;5.73;;;1.50;;
8466;SDS011;4270;48.148;11.648;2022-10-16T16:31:42;1.80;;;1.70;;
8466;SDS011;4270;48.148;11.648;2022-10-16T16:34:08;1.70;;;1.60;;
8466;SDS011;4270;48.148;11.648;2022-10-16T16:36:33;2.10;;;1.57;;
8466;SDS011;4270;48.148;11.648;2022-10-16T16:38:59;2.47;;;1.50;;
8466;SDS011;4270;48.148;11.648;2022-10-16T16:41:28;2.83;;;2.03;;
8466;SDS011;4270;48.148;11.648;2022-10-16T16:43:55;3.70;;;2.40;;
8466;SDS011;4270;48.148;11.648;2022-10-16T16:46:20;4.43;;;2.50;;
8466;SDS011;4270;48.148;11.648;2022-10-16T16:48:45;5.40;;;2.83;;
8466;SDS011;4270;48.148;11.648;2022-10-16T16:51:12;3.40;;;2.40;;
8466;SDS011;4270;48.148;11.648;2022-10-16T16:53:40;5.43;;;2.60;;
8466;SDS011;4270;48.148;11.648;2022-10-16T16:56:05;2.70;;;2.30;;
8466;SDS011;4270;48.148;11.648;2022-10-16T16:58:31;4.80;;;2.87;;
8466;SDS011;4270;48.148;11.648;2022-10-16T17:00:56;9.80;;;3.30;;
8466;SDS011;4270;48.148;11.648;2022-10-16T17:03:25;4.77;;;2.77;;